createdAt,value
2022-11-09T00:01:30.112Z,15.10
2022-11-09T00:04:00.048Z,15.10
2022-11-09T00:06:30.637Z,15.10
2022-11-09T00:09:05.772Z,15.10
2022-11-09T00:11:36.564Z,15.10
2022-11-09T00:14:05.542Z,15.00
2022-11-09T00:16:34.116Z,15.00
2022-11-09T00:19:02.621Z,15.00
2022-11-09T00:21:32.497Z,14.90
2022-11-09T00:24:01.125Z,14.90
2022-11-09T00:26:29.589Z,14.80
2022-11-09T00:28:58.329Z,14.80
2022-11-09T00:31:26.976Z,14.80
2022-11-09T00:33:57.884Z,14.70
2022-11-09T00:36:29.103Z,14.70
2022-11-09T00:39:00.928Z,14.60
2022-11-09T00:41:29.643Z,14.70
2022-11-09T00:43:58.230Z,14.60
2022-11-09T00:46:27.216Z,14.60
2022-11-09T00:48:56.776Z,14.60
2022-11-09T00:51:25.570Z,14.60
2022-11-09T00:53:55.397Z,14.60
2022-11-09T00:56:26.004Z,14.50
2022-11-09T00:58:55.913Z,14.50
2022-11-09T01:01:25.009Z,14.50
2022-11-09T01:03:53.575Z,14.50
2022-11-09T01:06:24.040Z,14.60
2022-11-09T01:08:53.600Z,14.50
2022-11-09T01:11:23.692Z,14.50
2022-11-09T01:13:56.167Z,14.60
2022-11-09T01:16:25.719Z,14.60
2022-11-09T01:18:55.160Z,14.60
2022-11-09T01:21:27.324Z,14.50
2022-11-09T01:23:58.264Z,14.60
2022-11-09T01:26:29.513Z,14.60
2022-11-09T01:28:59.361Z,14.60
2022-11-09T01:31:28.141Z,14.60
2022-11-09T01:33:56.666Z,14.60
2022-11-09T01:36:26.456Z,14.70
2022-11-09T01:38:55.009Z,14.70
2022-11-09T01:41:26.658Z,14.70
2022-11-09T01:44:11.800Z,14.70
2022-11-09T01:46:45.311Z,14.70
2022-11-09T01:49:19.952Z,14.70
2022-11-09T01:51:54.318Z,14.70
2022-11-09T01:54:26.970Z,14.70
2022-11-09T01:57:00.651Z,14.70
2022-11-09T01:59:34.485Z,14.70
2022-11-09T02:02:06.240Z,14.70
2022-11-09T02:04:39.389Z,14.60
2022-11-09T02:07:08.965Z,14.60
2022-11-09T02:09:42.589Z,14.50
2022-11-09T02:12:12.393Z,14.50
2022-11-09T02:14:43.472Z,14.50
2022-11-09T02:17:12.450Z,14.40
2022-11-09T02:19:41.024Z,14.40
2022-11-09T02:22:11.007Z,14.40
2022-11-09T02:24:40.737Z,14.40
2022-11-09T02:27:09.367Z,14.30
2022-11-09T02:29:42.322Z,14.30
2022-11-09T02:32:14.259Z,14.30
2022-11-09T02:34:42.762Z,14.30
2022-11-09T02:37:12.916Z,14.30
2022-11-09T02:39:41.602Z,14.30
2022-11-09T02:42:15.761Z,14.30
2022-11-09T02:44:53.688Z,14.20
2022-11-09T02:47:22.458Z,14.20
2022-11-09T02:49:51.166Z,14.20
2022-11-09T02:52:21.226Z,14.20
2022-11-09T02:54:49.877Z,14.20
2022-11-09T02:57:19.161Z,14.10
2022-11-09T02:59:47.706Z,14.10
2022-11-09T03:02:16.217Z,14.10
2022-11-09T03:04:44.773Z,14.10
2022-11-09T03:07:13.437Z,14.10
2022-11-09T03:09:44.018Z,14.00
2022-11-09T03:12:30.984Z,14.00
2022-11-09T03:15:08.649Z,14.00
2022-11-09T03:17:40.350Z,14.00
2022-11-09T03:20:10.532Z,14.00
2022-11-09T03:22:40.578Z,14.00
2022-11-09T03:25:11.713Z,14.00
2022-11-09T03:27:40.545Z,14.00
2022-11-09T03:30:10.913Z,14.00
2022-11-09T03:32:40.146Z,14.00
2022-11-09T03:35:10.147Z,14.10
2022-11-09T03:37:38.823Z,14.10
2022-11-09T03:40:08.539Z,14.10
2022-11-09T03:42:38.766Z,14.10
2022-11-09T03:45:08.245Z,14.20
2022-11-09T03:47:36.794Z,14.20
2022-11-09T03:50:05.628Z,14.20
2022-11-09T03:52:34.129Z,14.20
2022-11-09T03:55:02.926Z,14.20
2022-11-09T03:57:31.592Z,14.20
2022-11-09T04:00:01.520Z,14.20
2022-11-09T04:02:40.120Z,14.20
2022-11-09T04:05:10.051Z,14.20
2022-11-09T04:07:38.649Z,14.20
2022-11-09T04:10:08.491Z,14.20
2022-11-09T04:12:37.427Z,14.10
2022-11-09T04:15:08.516Z,14.10
2022-11-09T04:17:37.063Z,14.10
2022-11-09T04:20:06.016Z,14.20
2022-11-09T04:22:34.660Z,14.10
2022-11-09T04:25:03.755Z,14.10
2022-11-09T04:27:32.357Z,14.10
2022-11-09T04:30:00.880Z,14.10
2022-11-09T04:32:30.789Z,14.10
2022-11-09T04:34:59.371Z,14.00
2022-11-09T04:37:27.885Z,14.00
2022-11-09T04:39:56.384Z,14.00
2022-11-09T04:42:24.878Z,14.00
2022-11-09T04:44:53.457Z,14.00
2022-11-09T04:47:22.081Z,14.00
2022-11-09T04:49:51.958Z,14.00
2022-11-09T04:52:20.537Z,14.00
2022-11-09T04:54:49.058Z,14.00
2022-11-09T04:57:17.637Z,13.90
2022-11-09T04:59:46.508Z,13.90
2022-11-09T05:02:15.044Z,13.90
2022-11-09T05:04:43.582Z,13.90
2022-11-09T05:07:13.636Z,13.90
2022-11-09T05:09:42.239Z,13.90
2022-11-09T05:12:12.362Z,13.90
2022-11-09T05:14:40.998Z,13.90
2022-11-09T05:17:09.837Z,13.90
2022-11-09T05:19:38.412Z,13.90
2022-11-09T05:22:20.871Z,13.90
2022-11-09T05:24:51.710Z,13.90
2022-11-09T05:27:20.326Z,13.90
2022-11-09T05:29:48.885Z,13.90
2022-11-09T05:32:17.493Z,13.90
2022-11-09T05:34:46.014Z,13.90
2022-11-09T05:37:14.563Z,14.00
2022-11-09T05:39:43.044Z,13.90
2022-11-09T05:42:12.888Z,13.90
2022-11-09T05:44:41.437Z,13.90
2022-11-09T05:47:10.046Z,14.00
2022-11-09T05:49:38.536Z,14.00
2022-11-09T05:52:09.412Z,13.90
2022-11-09T05:54:37.951Z,13.90
2022-11-09T05:57:06.622Z,13.90
2022-11-09T05:59:36.480Z,13.90
2022-11-09T06:02:05.037Z,13.90
2022-11-09T06:04:33.579Z,13.90
2022-11-09T06:07:02.892Z,13.90
2022-11-09T06:09:31.447Z,13.90
2022-11-09T06:11:59.915Z,13.90
2022-11-09T06:14:28.559Z,13.90
2022-11-09T06:16:58.587Z,13.90
2022-11-09T06:19:27.424Z,14.00
2022-11-09T06:21:55.992Z,14.00
2022-11-09T06:24:24.644Z,14.00
2022-11-09T06:26:53.133Z,14.00
2022-11-09T06:29:21.694Z,14.00
2022-11-09T06:31:51.351Z,14.00
2022-11-09T06:34:21.256Z,14.00
2022-11-09T06:36:49.795Z,13.90
2022-11-09T06:39:18.357Z,13.90
2022-11-09T06:41:47.701Z,13.90
2022-11-09T06:44:16.676Z,13.80
2022-11-09T06:46:45.223Z,13.70
2022-11-09T06:49:13.901Z,13.70
2022-11-09T06:51:43.787Z,13.70
2022-11-09T06:54:12.377Z,13.70
2022-11-09T06:56:40.844Z,13.60
2022-11-09T06:59:09.873Z,13.60
2022-11-09T07:01:38.973Z,13.60
2022-11-09T07:04:07.630Z,13.50
2022-11-09T07:06:40.421Z,13.50
2022-11-09T07:09:10.945Z,13.50
2022-11-09T07:11:39.857Z,13.50
2022-11-09T07:14:08.458Z,13.40
2022-11-09T07:16:37.417Z,13.40
2022-11-09T07:19:05.936Z,13.40
2022-11-09T07:21:35.071Z,13.40
2022-11-09T07:24:03.629Z,13.40
2022-11-09T07:26:33.533Z,13.40
2022-11-09T07:29:02.063Z,13.40
2022-11-09T07:31:31.903Z,13.40
2022-11-09T07:34:04.676Z,13.40
2022-11-09T07:36:33.741Z,13.40
2022-11-09T07:39:02.319Z,13.40
2022-11-09T07:41:34.645Z,13.50
2022-11-09T07:44:05.777Z,13.40
2022-11-09T07:46:35.478Z,13.40
2022-11-09T07:49:04.048Z,13.50
2022-11-09T07:51:32.648Z,13.50
2022-11-09T07:54:01.204Z,13.50
2022-11-09T07:56:29.821Z,13.50
2022-11-09T07:58:58.277Z,13.50
2022-11-09T08:01:31.831Z,13.60
2022-11-09T08:04:00.366Z,13.60
2022-11-09T08:06:29.080Z,13.70
2022-11-09T08:08:58.015Z,13.70
2022-11-09T08:11:27.269Z,13.80
2022-11-09T08:13:56.714Z,13.80
2022-11-09T08:16:25.647Z,13.90
2022-11-09T08:18:55.450Z,13.90
2022-11-09T08:21:24.079Z,14.00
2022-11-09T08:23:52.801Z,14.10
2022-11-09T08:26:21.348Z,14.20
2022-11-09T08:28:49.916Z,14.20
2022-11-09T08:31:18.425Z,14.30
2022-11-09T08:33:46.902Z,14.30
2022-11-09T08:36:18.893Z,14.30
2022-11-09T08:38:47.641Z,14.40
2022-11-09T08:41:16.129Z,14.40
2022-11-09T08:43:44.652Z,14.40
2022-11-09T08:46:13.187Z,14.50
2022-11-09T08:48:41.785Z,14.50
2022-11-09T08:51:10.309Z,14.60
2022-11-09T08:53:40.208Z,14.60
2022-11-09T08:56:09.588Z,14.70
2022-11-09T08:58:38.142Z,14.70
2022-11-09T09:01:12.189Z,14.80
2022-11-09T09:03:44.084Z,14.90
2022-11-09T09:06:12.615Z,15.00
2022-11-09T09:08:42.523Z,15.00
2022-11-09T09:11:11.109Z,15.00
2022-11-09T09:13:43.353Z,15.00
2022-11-09T09:16:13.896Z,15.10
2022-11-09T09:18:42.385Z,15.20
2022-11-09T09:21:11.941Z,15.30
2022-11-09T09:23:41.905Z,15.40
2022-11-09T09:26:11.011Z,15.50
2022-11-09T09:28:39.610Z,15.60
2022-11-09T09:31:08.457Z,15.60
2022-11-09T09:33:37.560Z,15.60
2022-11-09T09:36:06.493Z,15.60
2022-11-09T09:38:35.071Z,15.60
2022-11-09T09:41:07.824Z,15.70
2022-11-09T09:43:43.177Z,15.70
2022-11-09T09:46:19.184Z,15.60
2022-11-09T09:48:54.177Z,15.60
2022-11-09T09:51:36.999Z,15.60
2022-11-09T09:54:12.228Z,15.60
2022-11-09T09:56:45.275Z,15.60
2022-11-09T09:59:20.332Z,15.70
2022-11-09T10:01:49.804Z,15.70
2022-11-09T10:04:20.309Z,15.70
2022-11-09T10:07:00.490Z,15.70
2022-11-09T10:09:51.001Z,15.80
2022-11-09T10:12:31.616Z,15.90
2022-11-09T10:15:22.066Z,15.90
2022-11-09T10:18:03.052Z,16.10
2022-11-09T10:20:49.098Z,16.10
2022-11-09T10:23:35.189Z,16.20
2022-11-09T10:26:09.997Z,16.20
2022-11-09T10:29:14.502Z,16.30
2022-11-09T10:31:35.514Z,16.30
2022-11-09T10:34:16.721Z,16.30
2022-11-09T10:36:49.560Z,16.40
2022-11-09T10:39:18.793Z,16.30
2022-11-09T10:42:05.949Z,16.40
2022-11-09T10:44:54.456Z,16.30
2022-11-09T10:47:52.130Z,16.30
2022-11-09T10:50:41.128Z,16.30
2022-11-09T10:53:29.347Z,16.40
2022-11-09T10:56:21.353Z,16.30
2022-11-09T10:59:40.781Z,16.30
2022-11-09T11:02:47.120Z,16.30
2022-11-09T11:05:35.326Z,16.40
2022-11-09T11:08:25.859Z,16.40
2022-11-09T11:11:37.440Z,16.40
2022-11-09T11:14:30.893Z,16.30
2022-11-09T11:17:25.199Z,16.20
2022-11-09T11:20:31.599Z,16.20
2022-11-09T11:23:21.220Z,16.10
2022-11-09T11:26:27.888Z,16.10
2022-11-09T11:29:32.505Z,16.10
2022-11-09T11:32:21.196Z,16.10
2022-11-09T11:35:15.365Z,16.00
2022-11-09T11:38:20.090Z,16.00
2022-11-09T11:41:30.960Z,16.00
2022-11-09T11:44:30.988Z,16.10
2022-11-09T11:47:25.800Z,16.10
2022-11-09T11:50:26.954Z,16.10
2022-11-09T11:53:25.156Z,16.30
2022-11-09T11:56:22.297Z,16.20
2022-11-09T11:59:36.990Z,16.20
2022-11-09T12:03:01.658Z,16.30
2022-11-09T12:06:07.248Z,16.30
2022-11-09T12:09:07.142Z,16.30
2022-11-09T12:12:08.325Z,16.30
2022-11-09T12:15:07.879Z,16.30
2022-11-09T12:18:06.800Z,16.30
2022-11-09T12:20:59.634Z,16.20
2022-11-09T12:24:08.853Z,16.20
2022-11-09T12:27:32.948Z,16.30
2022-11-09T12:30:23.824Z,16.30
2022-11-09T12:33:16.744Z,16.20
2022-11-09T12:36:09.294Z,16.20
2022-11-09T12:39:06.108Z,16.20
2022-11-09T12:41:54.737Z,16.10
2022-11-09T12:44:47.905Z,16.10
2022-11-09T12:47:41.333Z,16.20
2022-11-09T12:50:29.282Z,16.20
2022-11-09T12:53:16.450Z,16.20
2022-11-09T12:56:09.137Z,16.20
2022-11-09T12:59:35.072Z,16.20
2022-11-09T13:02:26.334Z,16.20
2022-11-09T13:05:30.556Z,16.20
2022-11-09T13:08:22.256Z,16.30
2022-11-09T13:11:23.377Z,16.20
2022-11-09T13:14:35.600Z,16.30
2022-11-09T13:18:00.113Z,16.40
2022-11-09T13:20:55.282Z,16.40
2022-11-09T13:24:03.476Z,16.50
2022-11-09T13:26:58.072Z,16.50
2022-11-09T13:29:56.681Z,16.50
2022-11-09T13:33:23.737Z,16.60
2022-11-09T13:36:20.727Z,16.50
2022-11-09T13:39:33.697Z,16.50
2022-11-09T13:42:32.264Z,16.40
2022-11-09T13:45:30.284Z,16.40
2022-11-09T13:48:32.245Z,16.50
2022-11-09T13:51:21.875Z,16.40
2022-11-09T13:54:31.306Z,16.40
2022-11-09T13:57:18.563Z,16.40
2022-11-09T14:00:08.039Z,16.30
2022-11-09T14:03:00.155Z,16.30
2022-11-09T14:05:51.589Z,16.30
2022-11-09T14:08:43.837Z,16.30
2022-11-09T14:12:02.528Z,16.30
2022-11-09T14:15:11.738Z,16.10
2022-11-09T14:18:23.119Z,16.10
2022-11-09T14:21:23.176Z,16.00
2022-11-09T14:24:17.209Z,16.00
2022-11-09T14:27:13.246Z,16.00
2022-11-09T14:30:02.600Z,16.00
2022-11-09T14:32:51.535Z,16.00
2022-11-09T14:35:40.382Z,16.00
2022-11-09T14:38:30.647Z,15.90
2022-11-09T14:41:22.406Z,15.90
2022-11-09T14:44:17.402Z,15.80
2022-11-09T14:47:05.861Z,15.80
2022-11-09T14:49:53.622Z,15.70
2022-11-09T14:52:42.366Z,15.60
2022-11-09T14:55:30.262Z,15.70
2022-11-09T14:58:18.084Z,15.60
2022-11-09T15:01:16.487Z,15.50
2022-11-09T15:04:12.721Z,15.50
2022-11-09T15:07:03.010Z,15.50
2022-11-09T15:09:55.420Z,15.50
2022-11-09T15:12:49.170Z,15.40
2022-11-09T15:15:38.388Z,15.30
2022-11-09T15:18:33.885Z,15.30
2022-11-09T15:21:34.686Z,15.30
2022-11-09T15:24:22.892Z,15.30
2022-11-09T15:27:31.136Z,15.20
2022-11-09T15:30:29.586Z,15.10
2022-11-09T15:33:27.644Z,15.10
2022-11-09T15:36:30.113Z,15.10
2022-11-09T15:39:19.094Z,15.00
2022-11-09T15:42:06.680Z,15.00
2022-11-09T15:44:57.013Z,14.90
2022-11-09T15:47:51.444Z,14.80
2022-11-09T15:50:38.654Z,14.80
2022-11-09T15:53:25.907Z,14.80
2022-11-09T15:56:17.552Z,14.70
2022-11-09T15:59:04.906Z,14.70
2022-11-09T16:01:53.898Z,14.60
2022-11-09T16:04:41.465Z,14.60
2022-11-09T16:07:28.352Z,14.50
2022-11-09T16:10:15.798Z,14.60
2022-11-09T16:13:02.609Z,14.60
2022-11-09T16:15:49.773Z,14.60
2022-11-09T16:18:38.617Z,14.60
2022-11-09T16:21:25.880Z,14.60
2022-11-09T16:24:12.949Z,14.50
2022-11-09T16:27:00.274Z,14.50
2022-11-09T16:29:47.533Z,14.40
2022-11-09T16:32:34.602Z,14.40
2022-11-09T16:35:27.183Z,14.40
2022-11-09T16:38:15.332Z,14.30
2022-11-09T16:41:04.628Z,14.30
2022-11-09T16:43:53.943Z,14.20
2022-11-09T16:46:43.310Z,14.10
2022-11-09T16:49:30.632Z,14.10
2022-11-09T16:52:19.155Z,14.00
2022-11-09T16:55:09.280Z,14.00
2022-11-09T16:57:56.215Z,14.00
2022-11-09T17:01:11.607Z,13.90
2022-11-09T17:03:52.596Z,13.90
2022-11-09T17:06:39.773Z,13.80
2022-11-09T17:09:28.398Z,13.80
2022-11-09T17:12:15.373Z,13.80
2022-11-09T17:15:02.611Z,13.70
2022-11-09T17:17:49.983Z,13.70
2022-11-09T17:20:42.588Z,13.70
2022-11-09T17:23:29.415Z,13.60
2022-11-09T17:26:18.975Z,13.70
2022-11-09T17:29:06.375Z,13.60
2022-11-09T17:31:53.504Z,13.60
2022-11-09T17:34:40.816Z,13.60
2022-11-09T17:37:31.187Z,13.60
2022-11-09T17:40:19.961Z,13.50
2022-11-09T17:43:08.407Z,13.40
2022-11-09T17:45:55.635Z,13.40
2022-11-09T17:48:46.308Z,13.30
2022-11-09T17:51:33.683Z,13.20
2022-11-09T17:54:20.820Z,13.20
2022-11-09T17:57:08.041Z,13.20
2022-11-09T17:59:56.637Z,13.10
2022-11-09T18:02:43.765Z,13.10
2022-11-09T18:05:30.902Z,13.00
2022-11-09T18:08:18.467Z,12.90
2022-11-09T18:11:06.342Z,12.90
2022-11-09T18:13:53.581Z,12.90
2022-11-09T18:16:42.126Z,12.90
2022-11-09T18:19:29.427Z,12.80
2022-11-09T18:22:16.533Z,12.80
2022-11-09T18:25:03.617Z,12.80
2022-11-09T18:27:52.363Z,12.80
2022-11-09T18:30:41.658Z,12.80
2022-11-09T18:33:30.711Z,12.80
2022-11-09T18:36:21.036Z,12.80
2022-11-09T18:39:08.228Z,12.80
2022-11-09T18:41:56.938Z,12.80
2022-11-09T18:44:44.135Z,12.80
2022-11-09T18:47:31.165Z,12.70
2022-11-09T18:50:21.774Z,12.70
2022-11-09T18:53:08.854Z,12.70
2022-11-09T18:56:04.845Z,12.60
2022-11-09T18:58:54.938Z,12.60
2022-11-09T19:01:41.932Z,12.60
2022-11-09T19:04:29.285Z,12.70
2022-11-09T19:07:18.038Z,12.70
2022-11-09T19:10:05.560Z,12.70
2022-11-09T19:12:52.786Z,12.70
2022-11-09T19:15:42.836Z,12.70
2022-11-09T19:18:30.022Z,12.80
2022-11-09T19:21:37.652Z,12.80
2022-11-09T19:24:28.539Z,12.80
2022-11-09T19:27:15.447Z,12.80
2022-11-09T19:30:08.944Z,12.80
2022-11-09T19:32:56.765Z,12.80
2022-11-09T19:35:46.809Z,12.70
2022-11-09T19:38:44.863Z,12.70
2022-11-09T19:41:33.597Z,12.70
2022-11-09T19:44:20.929Z,12.60
2022-11-09T19:47:08.167Z,12.60
2022-11-09T19:49:55.301Z,12.50
2022-11-09T19:52:42.618Z,12.50
2022-11-09T19:55:29.952Z,12.40
2022-11-09T19:58:18.677Z,12.40
2022-11-09T20:01:08.062Z,12.40
2022-11-09T20:03:56.619Z,12.30
2022-11-09T20:06:44.052Z,12.30
2022-11-09T20:09:31.734Z,12.30
2022-11-09T20:12:36.220Z,12.30
2022-11-09T20:15:24.835Z,12.20
2022-11-09T20:18:12.163Z,12.20
2022-11-09T20:20:59.180Z,12.20
2022-11-09T20:23:46.398Z,12.10
2022-11-09T20:26:33.867Z,12.10
2022-11-09T20:29:21.204Z,12.20
2022-11-09T20:32:12.321Z,12.00
2022-11-09T20:35:00.292Z,12.00
2022-11-09T20:37:47.505Z,12.00
2022-11-09T20:40:34.912Z,12.00
2022-11-09T20:43:22.285Z,11.90
2022-11-09T20:46:10.859Z,11.90
2022-11-09T20:48:59.612Z,11.90
2022-11-09T20:51:47.006Z,11.80
2022-11-09T20:54:34.116Z,11.80
2022-11-09T20:57:21.589Z,11.80
2022-11-09T21:00:10.009Z,11.70
2022-11-09T21:02:56.969Z,11.70
2022-11-09T21:05:50.516Z,11.70
2022-11-09T21:08:39.854Z,11.60
2022-11-09T21:11:28.784Z,11.50
2022-11-09T21:14:15.931Z,11.50
2022-11-09T21:17:03.104Z,11.40
2022-11-09T21:19:50.457Z,11.40
2022-11-09T21:22:59.035Z,11.40
2022-11-09T21:26:03.768Z,11.30
2022-11-09T21:29:08.434Z,11.30
2022-11-09T21:31:55.851Z,11.30
2022-11-09T21:34:43.052Z,11.30
2022-11-09T21:37:30.266Z,11.30
2022-11-09T21:40:18.955Z,11.30
2022-11-09T21:43:06.773Z,11.30
2022-11-09T21:45:54.713Z,11.20
2022-11-09T21:48:42.000Z,11.20
2022-11-09T21:51:29.189Z,11.30
2022-11-09T21:54:16.516Z,11.20
2022-11-09T21:57:05.062Z,11.20
2022-11-09T21:59:52.084Z,11.20
2022-11-09T22:02:39.107Z,11.30
2022-11-09T22:05:26.462Z,11.30
2022-11-09T22:08:13.603Z,11.30
2022-11-09T22:11:07.847Z,11.30
2022-11-09T22:14:14.166Z,11.30
2022-11-09T22:17:01.727Z,11.30
2022-11-09T22:20:06.202Z,11.30
2022-11-09T22:22:53.479Z,11.30
2022-11-09T22:25:45.212Z,11.20
2022-11-09T22:28:35.017Z,11.20
2022-11-09T22:31:23.329Z,11.20
2022-11-09T22:34:10.565Z,11.20
2022-11-09T22:36:58.081Z,11.10
2022-11-09T22:39:47.512Z,11.10
2022-11-09T22:42:34.878Z,11.00
2022-11-09T22:45:21.933Z,11.00
2022-11-09T22:48:10.836Z,11.00
2022-11-09T22:50:58.008Z,10.90
2022-11-09T22:53:48.859Z,10.90
2022-11-09T22:56:36.028Z,10.90
2022-11-09T22:59:23.208Z,10.80
2022-11-09T23:02:10.123Z,10.80
2022-11-09T23:04:58.628Z,10.70
2022-11-09T23:07:45.743Z,10.70
2022-11-09T23:10:33.170Z,10.60
2022-11-09T23:13:20.374Z,10.60
2022-11-09T23:16:09.916Z,10.50
2022-11-09T23:18:57.152Z,10.50
2022-11-09T23:21:45.658Z,10.50
2022-11-09T23:24:49.356Z,10.50
2022-11-09T23:27:36.403Z,10.50
2022-11-09T23:30:24.676Z,10.50
2022-11-09T23:33:13.057Z,10.40
2022-11-09T23:36:01.849Z,10.40
2022-11-09T23:38:50.713Z,10.40
2022-11-09T23:41:37.669Z,10.30
2022-11-09T23:44:24.907Z,10.30
2022-11-09T23:47:12.060Z,10.30
2022-11-09T23:49:59.380Z,10.20
2022-11-09T23:52:46.302Z,10.20
2022-11-09T23:55:34.811Z,10.20
2022-11-09T23:58:21.918Z,10.20
